Santa Rita, Guam
Current Conditions -  °F | °C
As of 9:54 AM on Thursday 27 Nov 2014 (Local Time) from PGUM Reporting Station
Few Clouds Few Clouds  
Wind Chill: 86°   Ceiling: Unl
Heat Index: 94°   Visibility: 10mi
Dew Point: 74°   Wind: 17mph
Humidity: 67%   Direction: 60°ENE
Pressure: 29.91"   Gusts: 28mph
Location:  13.39°N, 144.67°E
Report Text: PGUM 262354Z 06015G24KT 10SM FEW031 30/23 A2991 RMK AO2 PK WND 06026/2342 SLP120 P0001 60002 T03000233 10306 20267 51010
Loading
Personal Weather Stations






























Interactive Weather Map New forecast layout! Learn more

10-Day Weather Forecast

Advertisements
Track Severe Weather on mobile